createdAt,value
2017-06-05T00:01:24.502Z,85.80
2017-06-05T00:03:51.962Z,84.90
2017-06-05T00:06:19.434Z,84.30
2017-06-05T00:08:46.873Z,84.70
2017-06-05T00:11:14.330Z,84.80
2017-06-05T00:13:41.790Z,85.20
2017-06-05T00:16:09.253Z,85.90
2017-06-05T00:18:36.708Z,86.20
2017-06-05T00:21:04.166Z,85.80
2017-06-05T00:23:31.621Z,85.20
2017-06-05T00:25:59.125Z,85.60
2017-06-05T00:28:26.586Z,85.90
2017-06-05T00:30:54.035Z,86.00
2017-06-05T00:33:21.493Z,85.30
2017-06-05T00:35:49.041Z,86.70
2017-06-05T00:38:16.497Z,86.60
2017-06-05T00:40:43.958Z,86.70
2017-06-05T00:43:11.423Z,86.30
2017-06-05T00:45:38.896Z,86.30
2017-06-05T00:48:07.107Z,86.50
2017-06-05T00:50:34.601Z,86.50
2017-06-05T00:53:02.050Z,86.70
2017-06-05T00:55:29.514Z,86.50
2017-06-05T00:57:56.999Z,85.60
2017-06-05T01:00:24.456Z,85.50
2017-06-05T01:02:52.713Z,85.60
2017-06-05T01:05:20.185Z,85.60
2017-06-05T01:07:48.439Z,86.90
2017-06-05T01:10:15.997Z,86.80
2017-06-05T01:12:43.446Z,86.40
2017-06-05T01:15:10.930Z,86.80
2017-06-05T01:17:39.162Z,87.20
2017-06-05T01:20:06.635Z,87.10
2017-06-05T01:22:34.213Z,87.40
2017-06-05T01:25:01.665Z,87.00
2017-06-05T01:27:29.158Z,87.70
2017-06-05T01:29:56.614Z,88.20
2017-06-05T01:32:24.065Z,89.00
2017-06-05T01:34:51.533Z,89.40
2017-06-05T01:37:19.061Z,88.90
2017-06-05T01:39:46.534Z,87.70
2017-06-05T01:42:14.745Z,87.70
2017-06-05T01:44:42.217Z,87.50
2017-06-05T01:47:09.677Z,87.50
2017-06-05T01:49:37.173Z,87.60
2017-06-05T01:52:05.430Z,88.30
2017-06-05T01:54:32.891Z,88.30
2017-06-05T01:57:00.349Z,88.30
2017-06-05T01:59:27.806Z,88.70
2017-06-05T02:01:55.373Z,89.00
2017-06-05T02:04:22.830Z,88.80
2017-06-05T02:06:51.093Z,88.30
2017-06-05T02:09:18.546Z,88.20
2017-06-05T02:11:45.997Z,88.20
2017-06-05T02:14:13.465Z,88.20
2017-06-05T02:16:40.914Z,88.20
2017-06-05T02:19:08.481Z,87.90
2017-06-05T02:21:35.925Z,87.80
2017-06-05T02:24:03.389Z,87.90
2017-06-05T02:26:30.845Z,88.00
2017-06-05T02:28:58.410Z,87.90
2017-06-05T02:31:25.870Z,87.40
2017-06-05T02:33:53.326Z,87.50
2017-06-05T02:36:20.894Z,88.10
2017-06-05T02:38:48.341Z,88.10
2017-06-05T02:41:15.902Z,88.90
2017-06-05T02:43:43.355Z,88.70
2017-06-05T02:46:11.806Z,89.10
2017-06-05T02:48:39.258Z,88.90
2017-06-05T02:51:06.707Z,88.20
2017-06-05T02:53:34.174Z,87.90
2017-06-05T02:56:01.665Z,88.40
2017-06-05T02:58:29.126Z,89.50
2017-06-05T03:00:56.577Z,90.20
2017-06-05T03:03:24.038Z,90.80
2017-06-05T03:05:51.504Z,90.90
2017-06-05T03:08:19.051Z,90.60
2017-06-05T03:10:46.518Z,90.20
2017-06-05T03:13:13.976Z,89.40
2017-06-05T03:15:41.533Z,88.40
2017-06-05T03:18:09.018Z,87.90
2017-06-05T03:20:36.473Z,87.80
2017-06-05T03:23:04.685Z,88.30
2017-06-05T03:25:32.138Z,88.20
2017-06-05T03:27:59.601Z,88.10
2017-06-05T03:30:27.073Z,88.50
2017-06-05T03:32:54.545Z,88.70
2017-06-05T03:35:22.010Z,88.60
2017-06-05T03:37:49.494Z,89.60
2017-06-05T03:40:16.956Z,89.90
2017-06-05T03:42:44.402Z,90.10
2017-06-05T03:45:12.708Z,89.90
2017-06-05T03:47:40.155Z,89.80
2017-06-05T03:50:07.609Z,89.20
2017-06-05T03:52:35.057Z,88.70
2017-06-05T03:55:02.542Z,87.90
2017-06-05T03:57:29.994Z,88.50
2017-06-05T03:59:57.447Z,88.70
2017-06-05T04:02:24.910Z,88.70
2017-06-05T04:04:52.365Z,88.60
2017-06-05T04:07:19.854Z,87.60
2017-06-05T04:09:47.382Z,87.20
2017-06-05T04:12:14.869Z,86.70
2017-06-05T04:14:42.437Z,86.70
2017-06-05T04:17:09.890Z,86.40
2017-06-05T04:19:37.452Z,85.90
2017-06-05T04:22:05.009Z,85.60
2017-06-05T04:24:32.469Z,85.50
2017-06-05T04:27:00.030Z,86.00
2017-06-05T04:29:27.505Z,86.00
2017-06-05T04:31:55.722Z,86.20
2017-06-05T04:34:23.169Z,86.10
2017-06-05T04:36:50.638Z,85.90
2017-06-05T04:39:18.094Z,84.30
2017-06-05T04:41:45.553Z,84.10
2017-06-05T04:44:13.017Z,83.40
2017-06-05T04:46:40.509Z,83.20
2017-06-05T04:49:07.962Z,82.60
2017-06-05T04:51:35.405Z,82.40
2017-06-05T04:54:02.859Z,82.10
2017-06-05T04:56:30.309Z,81.50
2017-06-05T04:58:57.782Z,80.90
2017-06-05T05:01:25.229Z,80.90
2017-06-05T05:03:52.697Z,81.10
2017-06-05T05:06:20.138Z,79.60
2017-06-05T05:08:47.602Z,79.80
2017-06-05T05:11:15.054Z,79.70
2017-06-05T05:13:42.533Z,78.90
2017-06-05T05:16:09.978Z,77.90
2017-06-05T05:18:37.470Z,77.60
2017-06-05T05:21:04.934Z,80.10
2017-06-05T05:23:33.153Z,80.50
2017-06-05T05:26:00.613Z,80.40
2017-06-05T05:28:28.057Z,77.90
2017-06-05T05:30:55.554Z,77.60
2017-06-05T05:33:23.017Z,77.90
2017-06-05T05:35:51.229Z,76.50
2017-06-05T05:38:18.701Z,75.40
2017-06-05T05:40:46.158Z,73.90
2017-06-05T05:43:13.621Z,72.20
2017-06-05T05:45:41.087Z,72.60
2017-06-05T05:48:08.559Z,70.60
2017-06-05T05:50:36.009Z,70.70
2017-06-05T05:53:03.458Z,71.20
2017-06-05T05:55:30.914Z,71.20
2017-06-05T05:57:58.374Z,68.20
2017-06-05T06:00:25.831Z,64.50
2017-06-05T06:02:53.288Z,62.70
2017-06-05T06:05:20.749Z,63.40
2017-06-05T06:07:48.205Z,64.60
2017-06-05T06:10:15.670Z,64.50
2017-06-05T06:12:43.118Z,63.70
2017-06-05T06:15:10.578Z,60.50
2017-06-05T06:17:38.034Z,63.90
2017-06-05T06:20:05.499Z,62.70
2017-06-05T06:22:32.942Z,62.10
2017-06-05T06:25:00.390Z,61.90
2017-06-05T06:27:27.849Z,62.60
2017-06-05T06:29:55.303Z,61.80
2017-06-05T06:32:22.769Z,62.90
2017-06-05T06:34:50.234Z,61.30
2017-06-05T06:37:17.690Z,59.90
2017-06-05T06:39:45.142Z,61.00
2017-06-05T06:42:12.590Z,61.90
2017-06-05T06:44:40.053Z,62.40
2017-06-05T06:47:07.502Z,63.30
2017-06-05T06:49:34.986Z,61.90
2017-06-05T06:52:02.432Z,60.40
2017-06-05T06:54:29.877Z,60.60
2017-06-05T06:56:57.342Z,59.90
2017-06-05T06:59:24.786Z,60.40
2017-06-05T07:01:52.257Z,59.40
2017-06-05T07:04:19.705Z,59.10
2017-06-05T07:06:47.178Z,58.20
2017-06-05T07:09:14.627Z,58.70
2017-06-05T07:11:42.086Z,59.30
2017-06-05T07:14:09.540Z,59.10
2017-06-05T07:16:37.015Z,58.50
2017-06-05T07:19:04.465Z,56.80
2017-06-05T07:21:31.910Z,57.80
2017-06-05T07:23:59.376Z,56.40
2017-06-05T07:26:26.821Z,55.60
2017-06-05T07:28:54.279Z,55.60
2017-06-05T07:31:21.732Z,55.10
2017-06-05T07:33:49.204Z,55.60
2017-06-05T07:36:16.672Z,56.50
2017-06-05T07:38:44.118Z,56.20
2017-06-05T07:41:11.591Z,55.20
2017-06-05T07:43:39.060Z,54.80
2017-06-05T07:46:07.294Z,52.20
2017-06-05T07:48:34.754Z,52.00
2017-06-05T07:51:02.219Z,53.40
2017-06-05T07:53:29.675Z,51.80
2017-06-05T07:55:57.121Z,52.20
2017-06-05T07:58:24.585Z,49.70
2017-06-05T08:00:52.040Z,46.70
2017-06-05T08:03:19.509Z,44.70
2017-06-05T08:05:46.965Z,44.30
2017-06-05T08:08:14.441Z,43.30
2017-06-05T08:10:42.662Z,38.90
2017-06-05T08:13:10.110Z,38.50
2017-06-05T08:15:37.586Z,39.00
2017-06-05T08:18:05.045Z,39.40
2017-06-05T08:20:32.510Z,40.30
2017-06-05T08:22:59.957Z,40.40
2017-06-05T08:25:27.413Z,40.60
2017-06-05T08:27:54.865Z,40.60
2017-06-05T08:30:22.346Z,40.30
2017-06-05T08:32:49.798Z,40.50
2017-06-05T08:35:18.228Z,40.40
2017-06-05T08:37:46.502Z,40.00
2017-06-05T08:40:14.712Z,40.80
2017-06-05T08:42:42.182Z,40.70
2017-06-05T08:45:09.642Z,41.10
2017-06-05T08:47:37.101Z,42.40
2017-06-05T08:50:04.566Z,41.60
2017-06-05T08:52:32.038Z,43.10
2017-06-05T08:54:59.487Z,44.00
2017-06-05T08:57:26.950Z,41.50
2017-06-05T08:59:54.390Z,42.30
2017-06-05T09:02:21.870Z,41.20
2017-06-05T09:04:49.317Z,40.70
2017-06-05T09:07:16.771Z,40.50
2017-06-05T09:09:44.240Z,40.70
2017-06-05T09:12:11.693Z,41.20
2017-06-05T09:14:39.153Z,42.30
2017-06-05T09:17:06.609Z,41.80
2017-06-05T09:19:34.089Z,43.90
2017-06-05T09:22:08.056Z,43.00
2017-06-05T09:24:35.541Z,43.00
2017-06-05T09:27:04.792Z,43.50
2017-06-05T09:29:32.248Z,45.90
2017-06-05T09:31:59.716Z,44.10
2017-06-05T09:34:27.162Z,42.70
2017-06-05T09:36:54.622Z,40.50
2017-06-05T09:39:22.094Z,40.40
2017-06-05T09:41:49.568Z,38.50
2017-06-05T09:44:17.029Z,38.10
2017-06-05T09:46:44.481Z,39.00
2017-06-05T09:49:11.954Z,41.10
2017-06-05T09:51:40.177Z,42.50
2017-06-05T09:54:07.645Z,42.30
2017-06-05T09:56:35.094Z,43.20
2017-06-05T09:59:02.573Z,44.00
2017-06-05T10:01:30.025Z,40.80
2017-06-05T10:03:57.494Z,41.10
2017-06-05T10:06:24.962Z,40.80
2017-06-05T10:08:52.414Z,40.90
2017-06-05T10:11:19.873Z,41.00
2017-06-05T10:13:47.326Z,41.50
2017-06-05T10:16:14.818Z,41.00
2017-06-05T10:18:42.287Z,42.20
2017-06-05T10:21:09.730Z,41.70
2017-06-05T10:23:37.961Z,40.30
2017-06-05T10:26:05.418Z,40.40
2017-06-05T10:31:06.885Z,43.20
2017-06-05T10:33:34.357Z,43.10
2017-06-05T10:36:01.818Z,42.00
2017-06-05T10:38:29.282Z,41.20
2017-06-05T10:40:56.741Z,40.80
2017-06-05T10:43:24.186Z,41.70
2017-06-05T10:45:51.649Z,43.50
2017-06-05T10:48:19.089Z,40.90
2017-06-05T10:50:46.566Z,41.30
2017-06-05T10:53:14.016Z,39.60
2017-06-05T10:55:41.457Z,40.00
2017-06-05T10:58:08.946Z,41.20
2017-06-05T11:00:37.163Z,41.70
2017-06-05T11:03:04.641Z,41.60
2017-06-05T11:05:32.093Z,40.00
2017-06-05T11:07:59.537Z,41.00
2017-06-05T11:10:27.016Z,42.00
2017-06-05T11:12:54.473Z,42.40
2017-06-05T11:15:21.930Z,43.20
2017-06-05T11:17:49.403Z,42.50
2017-06-05T11:20:16.850Z,43.00
2017-06-05T11:22:44.321Z,43.70
2017-06-05T11:25:11.766Z,43.10
2017-06-05T11:27:39.214Z,43.20
2017-06-05T11:30:06.685Z,44.70
2017-06-05T11:32:34.121Z,46.70
2017-06-05T11:35:01.586Z,44.10
2017-06-05T11:37:29.051Z,44.40
2017-06-05T11:39:56.501Z,43.00
2017-06-05T11:42:23.954Z,43.20
2017-06-05T11:44:51.415Z,44.80
2017-06-05T11:47:18.869Z,42.10
2017-06-05T11:49:46.326Z,42.90
2017-06-05T11:52:13.785Z,43.80
2017-06-05T11:54:41.249Z,40.90
2017-06-05T11:57:08.707Z,41.00
2017-06-05T11:59:36.156Z,40.40
2017-06-05T12:02:03.617Z,43.20
2017-06-05T12:04:31.081Z,43.60
2017-06-05T12:06:58.549Z,45.00
2017-06-05T12:09:26.009Z,43.80
2017-06-05T12:11:53.458Z,43.60
2017-06-05T12:14:20.931Z,42.90
2017-06-05T12:16:49.149Z,43.60
2017-06-05T12:19:16.629Z,43.60
2017-06-05T12:21:44.085Z,43.10
2017-06-05T12:24:11.551Z,42.60
2017-06-05T12:26:39.023Z,40.90
2017-06-05T12:29:06.505Z,41.70
2017-06-05T12:31:33.957Z,41.80
2017-06-05T12:34:02.230Z,39.80
2017-06-05T12:36:29.698Z,39.80
2017-06-05T12:38:57.527Z,40.60
2017-06-05T12:41:24.966Z,39.00
2017-06-05T12:43:52.441Z,39.60
2017-06-05T12:46:19.898Z,37.70
2017-06-05T12:48:47.346Z,34.90
2017-06-05T12:51:14.818Z,36.20
2017-06-05T12:53:42.273Z,33.70
2017-06-05T12:56:09.740Z,34.30
2017-06-05T12:58:37.198Z,36.70
2017-06-05T13:01:04.641Z,35.70
2017-06-05T13:03:32.105Z,39.00
2017-06-05T13:05:59.564Z,37.40
2017-06-05T13:08:27.018Z,38.90
2017-06-05T13:10:54.471Z,37.80
2017-06-05T13:13:21.953Z,36.60
2017-06-05T13:15:50.170Z,37.80
2017-06-05T13:18:17.626Z,37.70
2017-06-05T13:20:45.090Z,37.10
2017-06-05T13:23:12.562Z,39.00
2017-06-05T13:25:40.010Z,39.50
2017-06-05T13:28:07.470Z,40.30
2017-06-05T13:30:34.922Z,39.60
2017-06-05T13:33:02.389Z,39.20
2017-06-05T13:35:29.841Z,38.20
2017-06-05T13:37:57.317Z,37.10
2017-06-05T13:40:24.778Z,35.20
2017-06-05T13:42:52.241Z,33.70
2017-06-05T13:45:19.715Z,33.90
2017-06-05T13:47:47.926Z,34.00
2017-06-05T13:50:15.382Z,33.90
2017-06-05T13:52:42.835Z,33.70
2017-06-05T13:55:10.318Z,33.80
2017-06-05T13:57:37.765Z,34.10
2017-06-05T14:00:05.214Z,34.70
2017-06-05T14:02:32.701Z,34.40
2017-06-05T14:05:00.157Z,33.90
2017-06-05T14:07:28.596Z,34.20
2017-06-05T14:09:56.037Z,33.90
2017-06-05T14:12:23.501Z,33.50
2017-06-05T14:14:50.959Z,34.10
2017-06-05T14:17:18.426Z,33.90
2017-06-05T14:19:45.865Z,34.40
2017-06-05T14:22:13.333Z,32.90
2017-06-05T14:24:40.778Z,31.50
2017-06-05T14:27:08.237Z,29.80
2017-06-05T14:29:35.689Z,28.50
2017-06-05T14:32:03.159Z,29.90
2017-06-05T14:34:30.594Z,29.60
2017-06-05T14:36:58.846Z,31.80
2017-06-05T14:39:26.302Z,31.80
2017-06-05T14:41:53.745Z,30.70
2017-06-05T14:44:21.209Z,30.30
2017-06-05T14:46:48.661Z,30.70
2017-06-05T14:49:16.130Z,31.40
2017-06-05T14:51:43.581Z,32.80
2017-06-05T14:54:11.042Z,33.80
2017-06-05T14:56:38.507Z,34.90
2017-06-05T14:59:05.965Z,34.30
2017-06-05T15:01:34.190Z,34.10
2017-06-05T15:04:01.664Z,33.80
2017-06-05T15:06:29.126Z,35.40
2017-06-05T15:08:56.599Z,38.30
2017-06-05T15:11:24.042Z,35.00
2017-06-05T15:13:51.494Z,35.60
2017-06-05T15:16:18.953Z,34.80
2017-06-05T15:18:46.406Z,35.00
2017-06-05T15:21:13.870Z,36.90
2017-06-05T15:23:41.316Z,35.80
2017-06-05T15:26:08.773Z,36.50
2017-06-05T15:28:36.225Z,36.70
2017-06-05T15:31:03.689Z,36.10
2017-06-05T15:33:31.153Z,35.20
2017-06-05T15:35:58.614Z,35.90
2017-06-05T15:38:26.301Z,35.10
2017-06-05T15:40:53.778Z,33.60
2017-06-05T15:43:21.225Z,34.00
2017-06-05T15:45:49.445Z,36.90
2017-06-05T15:48:16.902Z,36.80
2017-06-05T15:50:44.365Z,37.20
2017-06-05T15:53:11.821Z,35.20
2017-06-05T15:55:39.273Z,35.30
2017-06-05T15:58:06.729Z,35.00
2017-06-05T16:00:34.181Z,35.60
2017-06-05T16:03:01.665Z,35.50
2017-06-05T16:05:29.106Z,35.20
2017-06-05T16:07:56.577Z,36.20
2017-06-05T16:10:24.022Z,33.90
2017-06-05T16:12:51.512Z,36.40
2017-06-05T16:15:18.962Z,37.60
2017-06-05T16:17:46.409Z,36.00
2017-06-05T16:20:13.874Z,36.40
2017-06-05T16:22:41.333Z,38.60
2017-06-05T16:25:08.801Z,36.70
2017-06-05T16:27:36.249Z,36.90
2017-06-05T16:30:03.723Z,36.20
2017-06-05T16:32:31.941Z,34.70
2017-06-05T16:34:59.405Z,34.70
2017-06-05T16:37:26.853Z,34.80
2017-06-05T16:39:54.317Z,36.20
2017-06-05T16:42:21.770Z,36.20
2017-06-05T16:44:49.261Z,39.20
2017-06-05T16:47:16.709Z,38.60
2017-06-05T16:49:44.161Z,40.80
2017-06-05T16:52:11.633Z,37.80
2017-06-05T16:54:39.098Z,37.50
2017-06-05T16:57:06.554Z,36.90
2017-06-05T16:59:34.040Z,37.30
2017-06-05T17:02:01.479Z,37.20
2017-06-05T17:04:29.701Z,38.10
2017-06-05T17:06:57.167Z,38.10
2017-06-05T17:09:24.613Z,38.60
2017-06-05T17:11:52.173Z,37.60
2017-06-05T17:14:19.617Z,39.60
2017-06-05T17:16:47.067Z,39.60
2017-06-05T17:19:14.531Z,39.60
2017-06-05T17:21:41.974Z,39.10
2017-06-05T17:24:09.434Z,37.70
2017-06-05T17:26:36.882Z,40.00
2017-06-05T17:29:04.341Z,39.50
2017-06-05T17:31:31.791Z,38.20
2017-06-05T17:34:00.025Z,39.20
2017-06-05T17:36:27.474Z,39.10
2017-06-05T17:38:54.946Z,40.30
2017-06-05T17:41:22.389Z,42.70
2017-06-05T17:43:49.837Z,39.40
2017-06-05T17:46:17.306Z,41.20
2017-06-05T17:48:44.745Z,41.90
2017-06-05T17:51:12.209Z,40.80
2017-06-05T17:53:39.670Z,40.40
2017-06-05T17:56:07.144Z,40.90
2017-06-05T17:58:34.589Z,41.70
2017-06-05T18:01:02.049Z,41.30
2017-06-05T18:03:29.510Z,43.00
2017-06-05T18:05:56.965Z,44.60
2017-06-05T18:08:24.414Z,45.60
2017-06-05T18:10:51.885Z,45.50
2017-06-05T18:13:19.334Z,46.00
2017-06-05T18:15:46.822Z,47.90
2017-06-05T18:18:14.266Z,47.80
2017-06-05T18:20:41.717Z,48.00
2017-06-05T18:23:09.178Z,47.70
2017-06-05T18:25:36.642Z,49.50
2017-06-05T18:28:04.106Z,51.30
2017-06-05T18:30:31.562Z,52.60
2017-06-05T18:32:59.789Z,54.30
2017-06-05T18:35:27.239Z,54.60
2017-06-05T18:37:54.702Z,55.30
2017-06-05T18:40:22.154Z,57.00
2017-06-05T18:42:49.618Z,57.80
2017-06-05T18:45:17.071Z,58.40
2017-06-05T18:47:44.550Z,59.10
2017-06-05T18:50:11.998Z,60.00
2017-06-05T18:52:39.461Z,59.40
2017-06-05T18:55:06.921Z,59.50
2017-06-05T18:57:34.375Z,59.60
2017-06-05T19:00:01.837Z,59.60
2017-06-05T19:02:29.282Z,59.60
2017-06-05T19:04:56.749Z,59.90
2017-06-05T19:07:24.201Z,59.50
2017-06-05T19:09:51.673Z,60.30
2017-06-05T19:12:19.121Z,61.50
2017-06-05T19:14:46.587Z,63.00
2017-06-05T19:17:14.026Z,62.60
2017-06-05T19:19:41.493Z,62.70
2017-06-05T19:22:08.938Z,62.30
2017-06-05T19:24:36.409Z,62.40
2017-06-05T19:27:03.872Z,63.10
2017-06-05T19:29:31.337Z,63.50
2017-06-05T19:31:58.793Z,63.10
2017-06-05T19:34:26.249Z,63.20
2017-06-05T19:36:53.703Z,63.50
2017-06-05T19:39:21.262Z,64.60
2017-06-05T19:41:48.705Z,66.60
2017-06-05T19:44:16.177Z,68.50
2017-06-05T19:46:43.631Z,69.10
2017-06-05T19:49:11.174Z,69.40
2017-06-05T19:51:38.613Z,69.50
2017-06-05T19:54:06.105Z,69.90
2017-06-05T19:56:33.574Z,70.40
2017-06-05T19:59:01.025Z,71.10
2017-06-05T20:01:28.500Z,71.20
2017-06-05T20:03:56.718Z,70.70
2017-06-05T20:06:24.205Z,70.70
2017-06-05T20:08:51.770Z,70.80
2017-06-05T20:11:19.229Z,71.00
2017-06-05T20:13:46.790Z,70.70
2017-06-05T20:16:14.257Z,70.90
2017-06-05T20:18:41.712Z,70.40
2017-06-05T20:21:09.186Z,70.80
2017-06-05T20:23:37.397Z,71.00
2017-06-05T20:26:04.865Z,70.80
2017-06-05T20:28:32.332Z,71.00
2017-06-05T20:30:59.789Z,70.90
2017-06-05T20:33:27.242Z,71.30
2017-06-05T20:35:54.701Z,70.80
2017-06-05T20:38:22.145Z,71.40
2017-06-05T20:40:49.601Z,71.10
2017-06-05T20:43:17.067Z,70.60
2017-06-05T20:45:44.509Z,70.30
2017-06-05T20:48:11.965Z,70.00
2017-06-05T20:50:39.413Z,70.20
2017-06-05T20:53:06.886Z,70.90
2017-06-05T20:55:34.346Z,70.70
2017-06-05T20:58:25.793Z,71.20
2017-06-05T21:00:53.242Z,71.80
2017-06-05T21:03:20.704Z,71.90
2017-06-05T21:05:48.153Z,72.50
2017-06-05T21:08:15.616Z,73.10
2017-06-05T21:10:43.065Z,73.30
2017-06-05T21:13:10.534Z,75.30
2017-06-05T21:15:37.977Z,75.10
2017-06-05T21:18:05.442Z,74.60
2017-06-05T21:20:32.893Z,74.00
2017-06-05T21:23:00.353Z,73.60
2017-06-05T21:25:27.815Z,73.90
2017-06-05T21:27:55.283Z,73.80
2017-06-05T21:30:22.733Z,73.50
2017-06-05T21:32:50.199Z,72.90
2017-06-05T21:35:17.641Z,72.80
2017-06-05T21:38:20.341Z,72.70
2017-06-05T21:40:47.794Z,73.20
2017-06-05T21:43:15.245Z,73.40
2017-06-05T21:45:42.697Z,73.40
2017-06-05T21:48:10.170Z,73.70
2017-06-05T21:50:37.617Z,74.00
2017-06-05T21:53:05.075Z,73.90
2017-06-05T21:55:32.538Z,74.00
2017-06-05T21:57:59.989Z,74.20
2017-06-05T22:00:27.450Z,74.60
2017-06-05T22:02:54.897Z,75.10
2017-06-05T22:05:22.357Z,75.10
2017-06-05T22:07:49.805Z,75.10
2017-06-05T22:10:17.273Z,76.00
2017-06-05T22:12:44.717Z,76.40
2017-06-05T22:15:12.173Z,76.80
2017-06-05T22:17:39.617Z,76.50
2017-06-05T22:20:07.077Z,76.30
2017-06-05T22:22:34.532Z,76.00
2017-06-05T22:25:01.973Z,75.70
2017-06-05T22:27:29.433Z,75.40
2017-06-05T22:29:56.878Z,75.00
2017-06-05T22:32:24.345Z,74.80
2017-06-05T22:34:51.800Z,75.00
2017-06-05T22:37:19.269Z,75.00
2017-06-05T22:39:46.737Z,75.10
2017-06-05T22:42:14.210Z,76.80
2017-06-05T22:44:41.657Z,78.90
2017-06-05T22:47:09.117Z,80.90
2017-06-05T22:49:36.577Z,82.90
2017-06-05T22:52:04.034Z,84.20
2017-06-05T22:54:31.482Z,84.40
2017-06-05T22:56:58.949Z,84.80
2017-06-05T22:59:27.378Z,85.50
2017-06-05T23:01:54.857Z,87.20
2017-06-05T23:04:22.309Z,87.40
2017-06-05T23:06:49.772Z,87.10
2017-06-05T23:09:17.249Z,87.60
2017-06-05T23:11:44.715Z,89.20
2017-06-05T23:14:12.183Z,89.40
2017-06-05T23:16:39.629Z,91.00
2017-06-05T23:19:07.096Z,91.50
2017-06-05T23:21:34.554Z,91.30
2017-06-05T23:24:02.017Z,91.50
2017-06-05T23:26:29.473Z,91.70
2017-06-05T23:28:56.945Z,92.20
2017-06-05T23:31:25.161Z,92.60
2017-06-05T23:33:52.617Z,92.60
2017-06-05T23:36:20.078Z,92.40
2017-06-05T23:38:47.565Z,93.20
2017-06-05T23:41:15.021Z,92.60
2017-06-05T23:43:42.487Z,90.40
2017-06-05T23:46:09.937Z,86.20
2017-06-05T23:48:37.381Z,83.10
2017-06-05T23:51:04.842Z,84.30
2017-06-05T23:53:32.304Z,87.00
2017-06-05T23:55:59.769Z,88.90
2017-06-05T23:58:33.568Z,90.10
